This is the latest recevied weather packets stored in our database for station/object N6WDO. If no packets are shown the sender has not sent any weather packets the latest 10 day(s).
| Time | Temp. | Humidity | Pressure | Rain* | Wind** | Luminosity | Snow |
|---|---|---|---|---|---|---|---|
| 1777958174 | 10.56° C | 94% | 1015.3 hPa | 0 mm | - | 0 W/m² | - |
| 1777957873 | 10.56° C | 94% | 1015.3 hPa | 0 mm | - | 0 W/m² | - |
| 1777957570 | 10.56° C | 94% | 1015.3 hPa | 0 mm | - | 0 W/m² | - |
| 1777956964 | 10.56° C | 93% | 1015.5 hPa | 0 mm | - | 0 W/m² | - |
| 1777956662 | 10.56° C | 93% | 1015.5 hPa | 0 mm | - | 0 W/m² | - |
| 1777956358 | 10.56° C | 93% | 1015.7 hPa | 0 mm | - | 0 W/m² | - |
| 1777956055 | 10.56° C | 93% | 1015.8 hPa | 0 mm | - | 0 W/m² | - |
| 1777955751 | 10.56° C | 93% | 1015.5 hPa | 0 mm | - | 0 W/m² | - |
| 1777955448 | 10.56° C | 92% | 1015.6 hPa | 0 mm | - | 0 W/m² | - |
| 1777955144 | 10.56° C | 92% | 1015.6 hPa | 0 mm | - | 0 W/m² | - |
| 1777954841 | 11.11° C | 92% | 1015.5 hPa | 0 mm | - | 0 W/m² | - |
| 1777954538 | 11.11° C | 92% | 1015.4 hPa | 0 mm | - | 0 W/m² | - |
| 1777954236 | 11.11° C | 92% | 1015.3 hPa | 0 mm | - | 0 W/m² | - |
| 1777953933 | 11.11° C | 92% | 1015.4 hPa | 0 mm | - | 0 W/m² | - |
| 1777953630 | 10.56° C | 92% | 1015.2 hPa | 0 mm | - | 0 W/m² | - |
| 1777943324 | 12.22° C | 85% | 1015.2 hPa | 0 mm | - | 89 W/m² | - |
| 1777942716 | 12.22° C | 87% | 1015.6 hPa | 0 mm | - | 119 W/m² | - |
| 1777942413 | 12.22° C | 87% | 1015.5 hPa | 0 mm | - | 116 W/m² | - |
| 1777941504 | 12.78° C | 83% | 1015.3 hPa | 0 mm | - | 113 W/m² | - |
| 1777941201 | 12.78° C | 83% | 1015.3 hPa | 0 mm | - | 126 W/m² | - |
| 1777940897 | 12.78° C | 84% | 1015.5 hPa | 0 mm | - | 145 W/m² | - |
| 1777940293 | 12.78° C | 83% | 1015.4 hPa | 0 mm | - | 170 W/m² | - |
| 1777938777 | 11.67° C | 87% | 1015.5 hPa | 0 mm | - | 189 W/m² | - |
| 1777934535 | 10.56° C | 91% | 1015.9 hPa | 0 mm | - | 117 W/m² | - |
| 1777934231 | 11.11° C | 90% | 1016.1 hPa | 0 mm | - | 132 W/m² | - |
* Rain latest hour (hover to see other rain measurements)
** Current wind speed in m/s (hover to see current wind gust speed)